sensor_id;sensor_type;location;lat;lon;timestamp;P1;durP1;ratioP1;P2;durP2;ratioP2
59788;SDS011;47353;51.614;5.530;2024-02-23T00:01:30;2.85;;;1.52;;
59788;SDS011;47353;51.614;5.530;2024-02-23T00:03:56;3.85;;;2.10;;
59788;SDS011;47353;51.614;5.530;2024-02-23T00:06:21;4.68;;;2.28;;
59788;SDS011;47353;51.614;5.530;2024-02-23T00:08:52;4.30;;;2.70;;
59788;SDS011;47353;51.614;5.530;2024-02-23T00:11:19;5.65;;;3.60;;
59788;SDS011;47353;51.614;5.530;2024-02-23T00:13:45;6.15;;;3.85;;
59788;SDS011;47353;51.614;5.530;2024-02-23T00:16:10;7.43;;;4.20;;
59788;SDS011;47353;51.614;5.530;2024-02-23T00:18:36;7.63;;;4.25;;
59788;SDS011;47353;51.614;5.530;2024-02-23T00:21:01;7.20;;;4.40;;
59788;SDS011;47353;51.614;5.530;2024-02-23T00:23:27;5.68;;;4.13;;
59788;SDS011;47353;51.614;5.530;2024-02-23T00:25:53;5.93;;;4.25;;
59788;SDS011;47353;51.614;5.530;2024-02-23T00:28:19;6.32;;;3.90;;
59788;SDS011;47353;51.614;5.530;2024-02-23T00:30:44;5.30;;;3.80;;
59788;SDS011;47353;51.614;5.530;2024-02-23T00:33:10;7.78;;;3.42;;
59788;SDS011;47353;51.614;5.530;2024-02-23T00:35:35;4.13;;;3.47;;
59788;SDS011;47353;51.614;5.530;2024-02-23T00:38:00;6.40;;;3.58;;
59788;SDS011;47353;51.614;5.530;2024-02-23T00:40:26;5.18;;;3.20;;
59788;SDS011;47353;51.614;5.530;2024-02-23T00:42:51;4.95;;;2.53;;
59788;SDS011;47353;51.614;5.530;2024-02-23T00:45:17;4.70;;;2.47;;
59788;SDS011;47353;51.614;5.530;2024-02-23T00:47:42;4.45;;;1.92;;
59788;SDS011;47353;51.614;5.530;2024-02-23T00:50:08;4.00;;;2.00;;
59788;SDS011;47353;51.614;5.530;2024-02-23T00:52:35;3.55;;;1.95;;
59788;SDS011;47353;51.614;5.530;2024-02-23T00:55:00;7.22;;;2.10;;
59788;SDS011;47353;51.614;5.530;2024-02-23T00:57:26;4.28;;;1.75;;
59788;SDS011;47353;51.614;5.530;2024-02-23T00:59:55;4.30;;;1.77;;
59788;SDS011;47353;51.614;5.530;2024-02-23T01:02:23;2.35;;;1.60;;
59788;SDS011;47353;51.614;5.530;2024-02-23T01:04:48;5.05;;;1.88;;
59788;SDS011;47353;51.614;5.530;2024-02-23T01:07:14;4.15;;;1.65;;
59788;SDS011;47353;51.614;5.530;2024-02-23T01:09:39;5.60;;;1.75;;
59788;SDS011;47353;51.614;5.530;2024-02-23T01:12:05;4.07;;;1.40;;
59788;SDS011;47353;51.614;5.530;2024-02-23T01:14:30;3.90;;;1.40;;
59788;SDS011;47353;51.614;5.530;2024-02-23T01:16:56;3.72;;;1.65;;
59788;SDS011;47353;51.614;5.530;2024-02-23T01:19:21;4.45;;;1.33;;
59788;SDS011;47353;51.614;5.530;2024-02-23T01:21:47;3.00;;;1.20;;
59788;SDS011;47353;51.614;5.530;2024-02-23T01:24:14;3.45;;;1.42;;
59788;SDS011;47353;51.614;5.530;2024-02-23T01:26:39;2.72;;;1.10;;
59788;SDS011;47353;51.614;5.530;2024-02-23T01:29:06;2.25;;;1.23;;
59788;SDS011;47353;51.614;5.530;2024-02-23T01:31:31;6.60;;;1.55;;
59788;SDS011;47353;51.614;5.530;2024-02-23T01:33:57;4.40;;;1.00;;
59788;SDS011;47353;51.614;5.530;2024-02-23T01:36:22;7.03;;;1.20;;
59788;SDS011;47353;51.614;5.530;2024-02-23T01:38:47;4.15;;;1.00;;
59788;SDS011;47353;51.614;5.530;2024-02-23T01:41:13;4.35;;;1.20;;
59788;SDS011;47353;51.614;5.530;2024-02-23T01:43:39;3.13;;;0.90;;
59788;SDS011;47353;51.614;5.530;2024-02-23T01:46:05;3.13;;;0.85;;
59788;SDS011;47353;51.614;5.530;2024-02-23T01:48:31;5.32;;;1.05;;
59788;SDS011;47353;51.614;5.530;2024-02-23T01:50:57;3.83;;;1.10;;
59788;SDS011;47353;51.614;5.530;2024-02-23T01:53:23;4.35;;;1.10;;
59788;SDS011;47353;51.614;5.530;2024-02-23T01:55:50;7.43;;;1.17;;
59788;SDS011;47353;51.614;5.530;2024-02-23T01:58:18;4.65;;;1.20;;
59788;SDS011;47353;51.614;5.530;2024-02-23T02:00:44;5.50;;;1.15;;
59788;SDS011;47353;51.614;5.530;2024-02-23T02:03:10;3.97;;;1.00;;
59788;SDS011;47353;51.614;5.530;2024-02-23T02:05:36;4.68;;;1.23;;
59788;SDS011;47353;51.614;5.530;2024-02-23T02:08:02;2.67;;;1.17;;
59788;SDS011;47353;51.614;5.530;2024-02-23T02:10:28;4.38;;;1.10;;
59788;SDS011;47353;51.614;5.530;2024-02-23T02:12:53;3.17;;;1.20;;
59788;SDS011;47353;51.614;5.530;2024-02-23T02:15:19;8.23;;;1.30;;
59788;SDS011;47353;51.614;5.530;2024-02-23T02:17:47;6.13;;;1.30;;
59788;SDS011;47353;51.614;5.530;2024-02-23T02:20:13;4.20;;;1.13;;
59788;SDS011;47353;51.614;5.530;2024-02-23T02:22:39;4.40;;;1.15;;
59788;SDS011;47353;51.614;5.530;2024-02-23T02:25:05;5.68;;;1.38;;
59788;SDS011;47353;51.614;5.530;2024-02-23T02:27:31;5.70;;;1.30;;
59788;SDS011;47353;51.614;5.530;2024-02-23T02:29:57;4.05;;;1.10;;
59788;SDS011;47353;51.614;5.530;2024-02-23T02:32:22;5.20;;;1.77;;
59788;SDS011;47353;51.614;5.530;2024-02-23T02:34:48;4.50;;;1.30;;
59788;SDS011;47353;51.614;5.530;2024-02-23T02:37:14;4.25;;;0.95;;
59788;SDS011;47353;51.614;5.530;2024-02-23T02:39:39;2.75;;;0.90;;
59788;SDS011;47353;51.614;5.530;2024-02-23T02:42:05;4.72;;;0.90;;
59788;SDS011;47353;51.614;5.530;2024-02-23T02:44:30;4.03;;;1.00;;
59788;SDS011;47353;51.614;5.530;2024-02-23T02:46:56;3.85;;;0.93;;
59788;SDS011;47353;51.614;5.530;2024-02-23T02:49:22;2.28;;;0.90;;
59788;SDS011;47353;51.614;5.530;2024-02-23T02:51:48;3.60;;;0.95;;
59788;SDS011;47353;51.614;5.530;2024-02-23T02:54:13;2.95;;;0.98;;
59788;SDS011;47353;51.614;5.530;2024-02-23T02:56:47;3.65;;;1.10;;
59788;SDS011;47353;51.614;5.530;2024-02-23T02:59:13;4.75;;;1.30;;
59788;SDS011;47353;51.614;5.530;2024-02-23T03:01:38;4.88;;;1.50;;
59788;SDS011;47353;51.614;5.530;2024-02-23T03:04:04;4.85;;;1.20;;
59788;SDS011;47353;51.614;5.530;2024-02-23T03:06:30;4.78;;;1.33;;
59788;SDS011;47353;51.614;5.530;2024-02-23T03:08:55;2.72;;;1.10;;
59788;SDS011;47353;51.614;5.530;2024-02-23T03:11:21;3.92;;;1.10;;
59788;SDS011;47353;51.614;5.530;2024-02-23T03:13:46;5.45;;;1.20;;
59788;SDS011;47353;51.614;5.530;2024-02-23T03:16:16;4.57;;;1.50;;
59788;SDS011;47353;51.614;5.530;2024-02-23T03:18:42;7.57;;;1.40;;
59788;SDS011;47353;51.614;5.530;2024-02-23T03:21:07;4.75;;;1.50;;
59788;SDS011;47353;51.614;5.530;2024-02-23T03:23:34;4.35;;;1.00;;
59788;SDS011;47353;51.614;5.530;2024-02-23T03:26:00;6.65;;;1.52;;
59788;SDS011;47353;51.614;5.530;2024-02-23T03:28:25;4.78;;;1.30;;
59788;SDS011;47353;51.614;5.530;2024-02-23T03:30:51;4.03;;;1.30;;
59788;SDS011;47353;51.614;5.530;2024-02-23T03:33:16;4.45;;;1.20;;
59788;SDS011;47353;51.614;5.530;2024-02-23T03:35:41;3.17;;;1.02;;
59788;SDS011;47353;51.614;5.530;2024-02-23T03:38:07;5.15;;;1.23;;
59788;SDS011;47353;51.614;5.530;2024-02-23T03:40:33;5.65;;;1.15;;
59788;SDS011;47353;51.614;5.530;2024-02-23T03:42:59;4.68;;;1.23;;
59788;SDS011;47353;51.614;5.530;2024-02-23T03:45:24;6.60;;;1.20;;
59788;SDS011;47353;51.614;5.530;2024-02-23T03:47:49;4.13;;;1.17;;
59788;SDS011;47353;51.614;5.530;2024-02-23T03:50:15;4.03;;;1.15;;
59788;SDS011;47353;51.614;5.530;2024-02-23T03:52:40;2.92;;;1.00;;
59788;SDS011;47353;51.614;5.530;2024-02-23T03:55:06;5.55;;;1.63;;
59788;SDS011;47353;51.614;5.530;2024-02-23T03:57:31;4.53;;;1.10;;
59788;SDS011;47353;51.614;5.530;2024-02-23T03:59:57;3.58;;;1.33;;
59788;SDS011;47353;51.614;5.530;2024-02-23T04:02:22;4.05;;;1.08;;
59788;SDS011;47353;51.614;5.530;2024-02-23T04:04:48;5.93;;;1.77;;
59788;SDS011;47353;51.614;5.530;2024-02-23T04:07:14;2.58;;;1.10;;
59788;SDS011;47353;51.614;5.530;2024-02-23T04:09:39;4.30;;;1.33;;
59788;SDS011;47353;51.614;5.530;2024-02-23T04:12:05;4.00;;;1.30;;
59788;SDS011;47353;51.614;5.530;2024-02-23T04:14:32;6.38;;;1.48;;
59788;SDS011;47353;51.614;5.530;2024-02-23T04:17:01;5.18;;;1.52;;
59788;SDS011;47353;51.614;5.530;2024-02-23T04:19:26;5.75;;;1.80;;
59788;SDS011;47353;51.614;5.530;2024-02-23T04:21:52;3.85;;;1.50;;
59788;SDS011;47353;51.614;5.530;2024-02-23T04:24:17;5.68;;;1.40;;
59788;SDS011;47353;51.614;5.530;2024-02-23T04:26:43;8.05;;;2.00;;
59788;SDS011;47353;51.614;5.530;2024-02-23T04:29:08;5.40;;;1.67;;
59788;SDS011;47353;51.614;5.530;2024-02-23T04:31:35;4.45;;;1.50;;
59788;SDS011;47353;51.614;5.530;2024-02-23T04:34:01;4.38;;;1.65;;
59788;SDS011;47353;51.614;5.530;2024-02-23T04:36:27;5.88;;;1.50;;
59788;SDS011;47353;51.614;5.530;2024-02-23T04:38:52;7.63;;;1.88;;
59788;SDS011;47353;51.614;5.530;2024-02-23T04:41:20;5.50;;;1.60;;
59788;SDS011;47353;51.614;5.530;2024-02-23T04:43:47;4.35;;;1.55;;
59788;SDS011;47353;51.614;5.530;2024-02-23T04:46:12;4.13;;;1.60;;
59788;SDS011;47353;51.614;5.530;2024-02-23T04:48:38;5.28;;;1.70;;
59788;SDS011;47353;51.614;5.530;2024-02-23T04:51:03;8.40;;;1.88;;
59788;SDS011;47353;51.614;5.530;2024-02-23T04:53:29;5.30;;;2.35;;
59788;SDS011;47353;51.614;5.530;2024-02-23T04:55:55;6.78;;;1.88;;
59788;SDS011;47353;51.614;5.530;2024-02-23T04:58:20;4.32;;;1.88;;
59788;SDS011;47353;51.614;5.530;2024-02-23T05:00:47;4.63;;;1.80;;
59788;SDS011;47353;51.614;5.530;2024-02-23T05:03:12;5.85;;;2.00;;
59788;SDS011;47353;51.614;5.530;2024-02-23T05:05:38;4.88;;;1.85;;
59788;SDS011;47353;51.614;5.530;2024-02-23T05:08:03;5.97;;;2.00;;
59788;SDS011;47353;51.614;5.530;2024-02-23T05:10:28;5.75;;;1.88;;
59788;SDS011;47353;51.614;5.530;2024-02-23T05:12:54;3.50;;;1.77;;
59788;SDS011;47353;51.614;5.530;2024-02-23T05:15:20;6.78;;;2.00;;
59788;SDS011;47353;51.614;5.530;2024-02-23T05:17:46;6.60;;;1.95;;
59788;SDS011;47353;51.614;5.530;2024-02-23T05:20:11;6.15;;;2.42;;
59788;SDS011;47353;51.614;5.530;2024-02-23T05:22:38;5.78;;;1.65;;
59788;SDS011;47353;51.614;5.530;2024-02-23T05:25:04;3.80;;;1.52;;
59788;SDS011;47353;51.614;5.530;2024-02-23T05:27:30;6.03;;;1.83;;
59788;SDS011;47353;51.614;5.530;2024-02-23T05:29:56;3.42;;;1.60;;
59788;SDS011;47353;51.614;5.530;2024-02-23T05:32:21;5.97;;;1.55;;
59788;SDS011;47353;51.614;5.530;2024-02-23T05:34:47;6.93;;;1.67;;
59788;SDS011;47353;51.614;5.530;2024-02-23T05:37:16;7.05;;;2.05;;
59788;SDS011;47353;51.614;5.530;2024-02-23T05:39:42;7.22;;;1.55;;
59788;SDS011;47353;51.614;5.530;2024-02-23T05:42:07;6.57;;;1.60;;
59788;SDS011;47353;51.614;5.530;2024-02-23T05:44:33;5.05;;;1.70;;
59788;SDS011;47353;51.614;5.530;2024-02-23T05:46:58;4.50;;;1.50;;
59788;SDS011;47353;51.614;5.530;2024-02-23T05:49:23;9.73;;;1.75;;
59788;SDS011;47353;51.614;5.530;2024-02-23T05:51:49;7.68;;;1.73;;
59788;SDS011;47353;51.614;5.530;2024-02-23T05:54:14;5.50;;;1.30;;
59788;SDS011;47353;51.614;5.530;2024-02-23T05:56:40;4.85;;;1.50;;
59788;SDS011;47353;51.614;5.530;2024-02-23T05:59:05;4.28;;;1.13;;
59788;SDS011;47353;51.614;5.530;2024-02-23T06:01:31;4.15;;;1.25;;
59788;SDS011;47353;51.614;5.530;2024-02-23T06:03:57;7.32;;;1.50;;
59788;SDS011;47353;51.614;5.530;2024-02-23T06:06:22;4.72;;;1.52;;
59788;SDS011;47353;51.614;5.530;2024-02-23T06:08:48;4.03;;;1.27;;
59788;SDS011;47353;51.614;5.530;2024-02-23T06:11:14;6.03;;;1.50;;
59788;SDS011;47353;51.614;5.530;2024-02-23T06:13:40;8.85;;;1.50;;
59788;SDS011;47353;51.614;5.530;2024-02-23T06:16:09;3.72;;;1.27;;
59788;SDS011;47353;51.614;5.530;2024-02-23T06:18:35;6.50;;;1.48;;
59788;SDS011;47353;51.614;5.530;2024-02-23T06:21:01;5.90;;;1.30;;
59788;SDS011;47353;51.614;5.530;2024-02-23T06:23:27;10.10;;;1.60;;
59788;SDS011;47353;51.614;5.530;2024-02-23T06:25:52;5.43;;;1.30;;
59788;SDS011;47353;51.614;5.530;2024-02-23T06:28:18;6.45;;;1.38;;
59788;SDS011;47353;51.614;5.530;2024-02-23T06:30:43;4.35;;;1.25;;
59788;SDS011;47353;51.614;5.530;2024-02-23T06:33:08;4.75;;;1.30;;
59788;SDS011;47353;51.614;5.530;2024-02-23T06:35:34;8.80;;;1.70;;
59788;SDS011;47353;51.614;5.530;2024-02-23T06:37:59;5.82;;;1.35;;
59788;SDS011;47353;51.614;5.530;2024-02-23T06:40:25;3.72;;;1.17;;
59788;SDS011;47353;51.614;5.530;2024-02-23T06:42:50;7.03;;;1.60;;
59788;SDS011;47353;51.614;5.530;2024-02-23T06:45:16;5.20;;;1.30;;
59788;SDS011;47353;51.614;5.530;2024-02-23T06:47:41;7.40;;;1.25;;
59788;SDS011;47353;51.614;5.530;2024-02-23T06:50:07;8.45;;;1.50;;
59788;SDS011;47353;51.614;5.530;2024-02-23T06:52:33;6.80;;;1.50;;
59788;SDS011;47353;51.614;5.530;2024-02-23T06:54:59;4.85;;;1.30;;
59788;SDS011;47353;51.614;5.530;2024-02-23T06:57:25;7.32;;;1.70;;
59788;SDS011;47353;51.614;5.530;2024-02-23T06:59:51;6.88;;;1.40;;
59788;SDS011;47353;51.614;5.530;2024-02-23T07:02:16;7.30;;;1.85;;
59788;SDS011;47353;51.614;5.530;2024-02-23T07:04:42;9.07;;;1.50;;
59788;SDS011;47353;51.614;5.530;2024-02-23T07:07:07;6.30;;;1.40;;
59788;SDS011;47353;51.614;5.530;2024-02-23T07:09:33;8.15;;;1.40;;
59788;SDS011;47353;51.614;5.530;2024-02-23T07:11:59;5.28;;;1.58;;
59788;SDS011;47353;51.614;5.530;2024-02-23T07:14:25;6.90;;;1.42;;
59788;SDS011;47353;51.614;5.530;2024-02-23T07:16:50;8.25;;;1.50;;
59788;SDS011;47353;51.614;5.530;2024-02-23T07:19:19;6.60;;;1.27;;
59788;SDS011;47353;51.614;5.530;2024-02-23T07:21:45;3.85;;;1.30;;
59788;SDS011;47353;51.614;5.530;2024-02-23T07:24:11;7.57;;;1.42;;
59788;SDS011;47353;51.614;5.530;2024-02-23T07:26:36;9.68;;;1.50;;
59788;SDS011;47353;51.614;5.530;2024-02-23T07:29:02;4.05;;;1.52;;
59788;SDS011;47353;51.614;5.530;2024-02-23T07:31:27;6.88;;;1.55;;
59788;SDS011;47353;51.614;5.530;2024-02-23T07:33:52;7.10;;;1.48;;
59788;SDS011;47353;51.614;5.530;2024-02-23T07:36:18;6.45;;;1.50;;
59788;SDS011;47353;51.614;5.530;2024-02-23T07:38:43;5.40;;;1.50;;
59788;SDS011;47353;51.614;5.530;2024-02-23T07:41:09;4.28;;;1.45;;
59788;SDS011;47353;51.614;5.530;2024-02-23T07:43:36;8.27;;;1.30;;
59788;SDS011;47353;51.614;5.530;2024-02-23T07:46:01;6.00;;;1.30;;
59788;SDS011;47353;51.614;5.530;2024-02-23T07:48:27;6.65;;;1.45;;
59788;SDS011;47353;51.614;5.530;2024-02-23T07:50:53;5.40;;;1.50;;
59788;SDS011;47353;51.614;5.530;2024-02-23T07:53:18;6.38;;;1.35;;
59788;SDS011;47353;51.614;5.530;2024-02-23T07:55:44;6.53;;;1.50;;
59788;SDS011;47353;51.614;5.530;2024-02-23T07:58:09;3.63;;;1.25;;
59788;SDS011;47353;51.614;5.530;2024-02-23T08:00:35;6.55;;;1.10;;
59788;SDS011;47353;51.614;5.530;2024-02-23T08:03:03;6.32;;;1.40;;
59788;SDS011;47353;51.614;5.530;2024-02-23T08:05:28;6.05;;;1.50;;
59788;SDS011;47353;51.614;5.530;2024-02-23T08:07:54;8.15;;;1.70;;
59788;SDS011;47353;51.614;5.530;2024-02-23T08:10:19;6.57;;;1.30;;
59788;SDS011;47353;51.614;5.530;2024-02-23T08:12:45;5.03;;;1.63;;
59788;SDS011;47353;51.614;5.530;2024-02-23T08:15:11;3.17;;;1.20;;
59788;SDS011;47353;51.614;5.530;2024-02-23T08:17:37;8.98;;;1.20;;
59788;SDS011;47353;51.614;5.530;2024-02-23T08:20:03;3.88;;;1.00;;
59788;SDS011;47353;51.614;5.530;2024-02-23T08:22:29;3.83;;;1.10;;
59788;SDS011;47353;51.614;5.530;2024-02-23T08:24:54;5.22;;;1.70;;
59788;SDS011;47353;51.614;5.530;2024-02-23T08:27:20;6.18;;;1.50;;
59788;SDS011;47353;51.614;5.530;2024-02-23T08:29:45;4.05;;;1.02;;
59788;SDS011;47353;51.614;5.530;2024-02-23T08:32:11;4.22;;;0.80;;
59788;SDS011;47353;51.614;5.530;2024-02-23T08:34:38;4.55;;;1.20;;
59788;SDS011;47353;51.614;5.530;2024-02-23T08:37:04;5.70;;;1.27;;
59788;SDS011;47353;51.614;5.530;2024-02-23T08:39:29;7.30;;;1.35;;
59788;SDS011;47353;51.614;5.530;2024-02-23T08:41:55;5.57;;;1.50;;
59788;SDS011;47353;51.614;5.530;2024-02-23T08:44:20;8.23;;;1.88;;
59788;SDS011;47353;51.614;5.530;2024-02-23T08:46:46;5.47;;;1.25;;
59788;SDS011;47353;51.614;5.530;2024-02-23T08:49:13;5.32;;;1.40;;
59788;SDS011;47353;51.614;5.530;2024-02-23T08:51:38;7.60;;;1.23;;
59788;SDS011;47353;51.614;5.530;2024-02-23T08:54:04;6.50;;;1.20;;
59788;SDS011;47353;51.614;5.530;2024-02-23T08:56:30;4.85;;;1.05;;
59788;SDS011;47353;51.614;5.530;2024-02-23T08:58:56;5.50;;;1.50;;
59788;SDS011;47353;51.614;5.530;2024-02-23T09:01:22;10.98;;;1.40;;
59788;SDS011;47353;51.614;5.530;2024-02-23T09:03:48;4.15;;;1.50;;
59788;SDS011;47353;51.614;5.530;2024-02-23T09:06:13;6.20;;;1.70;;
59788;SDS011;47353;51.614;5.530;2024-02-23T09:08:39;5.63;;;1.70;;
59788;SDS011;47353;51.614;5.530;2024-02-23T09:11:06;6.07;;;1.98;;
59788;SDS011;47353;51.614;5.530;2024-02-23T09:13:31;7.93;;;1.40;;
59788;SDS011;47353;51.614;5.530;2024-02-23T09:15:56;5.15;;;1.30;;
59788;SDS011;47353;51.614;5.530;2024-02-23T09:18:22;4.63;;;1.30;;
59788;SDS011;47353;51.614;5.530;2024-02-23T09:20:48;6.90;;;1.45;;
59788;SDS011;47353;51.614;5.530;2024-02-23T09:23:13;5.07;;;1.35;;
59788;SDS011;47353;51.614;5.530;2024-02-23T09:25:39;3.28;;;1.20;;
59788;SDS011;47353;51.614;5.530;2024-02-23T09:28:04;4.40;;;1.25;;
59788;SDS011;47353;51.614;5.530;2024-02-23T09:30:30;6.30;;;1.20;;
59788;SDS011;47353;51.614;5.530;2024-02-23T09:32:55;5.40;;;1.30;;
59788;SDS011;47353;51.614;5.530;2024-02-23T09:35:20;6.38;;;1.50;;
59788;SDS011;47353;51.614;5.530;2024-02-23T09:37:46;6.50;;;1.20;;
59788;SDS011;47353;51.614;5.530;2024-02-23T09:40:11;4.40;;;1.00;;
59788;SDS011;47353;51.614;5.530;2024-02-23T09:42:37;7.07;;;1.45;;
59788;SDS011;47353;51.614;5.530;2024-02-23T09:45:04;8.18;;;1.83;;
59788;SDS011;47353;51.614;5.530;2024-02-23T09:47:30;4.97;;;1.23;;
59788;SDS011;47353;51.614;5.530;2024-02-23T09:49:56;4.70;;;1.02;;
59788;SDS011;47353;51.614;5.530;2024-02-23T09:52:22;5.93;;;1.50;;
59788;SDS011;47353;51.614;5.530;2024-02-23T09:54:48;4.30;;;1.30;;
59788;SDS011;47353;51.614;5.530;2024-02-23T09:57:14;6.10;;;1.40;;
59788;SDS011;47353;51.614;5.530;2024-02-23T09:59:42;3.92;;;1.20;;
59788;SDS011;47353;51.614;5.530;2024-02-23T10:02:08;6.20;;;1.50;;
59788;SDS011;47353;51.614;5.530;2024-02-23T10:04:38;3.80;;;1.20;;
59788;SDS011;47353;51.614;5.530;2024-02-23T10:07:05;5.55;;;1.55;;
59788;SDS011;47353;51.614;5.530;2024-02-23T10:09:31;4.65;;;1.17;;
59788;SDS011;47353;51.614;5.530;2024-02-23T10:11:56;3.72;;;1.23;;
59788;SDS011;47353;51.614;5.530;2024-02-23T10:14:22;5.05;;;1.10;;
59788;SDS011;47353;51.614;5.530;2024-02-23T10:16:47;4.03;;;1.20;;
59788;SDS011;47353;51.614;5.530;2024-02-23T10:19:18;3.55;;;1.00;;
59788;SDS011;47353;51.614;5.530;2024-02-23T10:21:47;4.50;;;1.17;;
59788;SDS011;47353;51.614;5.530;2024-02-23T10:24:13;4.03;;;1.02;;
59788;SDS011;47353;51.614;5.530;2024-02-23T10:26:41;4.00;;;1.10;;
59788;SDS011;47353;51.614;5.530;2024-02-23T10:29:07;5.85;;;1.50;;
59788;SDS011;47353;51.614;5.530;2024-02-23T10:31:34;3.13;;;1.25;;
59788;SDS011;47353;51.614;5.530;2024-02-23T10:34:07;4.07;;;1.00;;
59788;SDS011;47353;51.614;5.530;2024-02-23T10:36:42;2.92;;;0.93;;
59788;SDS011;47353;51.614;5.530;2024-02-23T10:39:07;4.60;;;1.20;;
59788;SDS011;47353;51.614;5.530;2024-02-23T10:41:35;2.35;;;0.95;;
59788;SDS011;47353;51.614;5.530;2024-02-23T10:44:02;1.75;;;0.75;;
59788;SDS011;47353;51.614;5.530;2024-02-23T10:46:30;4.28;;;1.10;;
59788;SDS011;47353;51.614;5.530;2024-02-23T10:48:56;4.03;;;1.05;;
59788;SDS011;47353;51.614;5.530;2024-02-23T10:51:24;4.57;;;1.20;;
59788;SDS011;47353;51.614;5.530;2024-02-23T10:53:50;4.85;;;1.27;;
59788;SDS011;47353;51.614;5.530;2024-02-23T10:56:18;6.28;;;1.20;;
59788;SDS011;47353;51.614;5.530;2024-02-23T10:58:44;3.28;;;0.98;;
59788;SDS011;47353;51.614;5.530;2024-02-23T11:01:14;3.55;;;1.10;;
59788;SDS011;47353;51.614;5.530;2024-02-23T11:03:43;5.88;;;1.40;;
59788;SDS011;47353;51.614;5.530;2024-02-23T11:06:15;3.53;;;1.20;;
59788;SDS011;47353;51.614;5.530;2024-02-23T11:08:51;3.85;;;1.30;;
59788;SDS011;47353;51.614;5.530;2024-02-23T11:11:20;3.85;;;1.23;;
59788;SDS011;47353;51.614;5.530;2024-02-23T11:13:46;5.40;;;1.20;;
59788;SDS011;47353;51.614;5.530;2024-02-23T11:16:20;4.63;;;1.40;;
59788;SDS011;47353;51.614;5.530;2024-02-23T11:18:48;3.42;;;1.10;;
59788;SDS011;47353;51.614;5.530;2024-02-23T11:21:13;3.75;;;1.52;;
59788;SDS011;47353;51.614;5.530;2024-02-23T11:23:42;5.15;;;1.33;;
59788;SDS011;47353;51.614;5.530;2024-02-23T11:26:09;3.70;;;1.33;;
59788;SDS011;47353;51.614;5.530;2024-02-23T11:28:43;6.50;;;1.50;;
59788;SDS011;47353;51.614;5.530;2024-02-23T11:31:12;3.58;;;1.20;;
59788;SDS011;47353;51.614;5.530;2024-02-23T11:33:38;3.25;;;1.15;;
59788;SDS011;47353;51.614;5.530;2024-02-23T11:38:33;3.42;;;1.10;;
59788;SDS011;47353;51.614;5.530;2024-02-23T11:40:59;4.82;;;1.10;;
59788;SDS011;47353;51.614;5.530;2024-02-23T11:43:26;4.15;;;1.27;;
59788;SDS011;47353;51.614;5.530;2024-02-23T11:45:52;2.65;;;1.13;;
59788;SDS011;47353;51.614;5.530;2024-02-23T11:48:18;3.42;;;1.25;;
59788;SDS011;47353;51.614;5.530;2024-02-23T11:50:44;5.60;;;1.40;;
59788;SDS011;47353;51.614;5.530;2024-02-23T11:53:10;5.22;;;1.33;;
59788;SDS011;47353;51.614;5.530;2024-02-23T11:55:35;4.93;;;1.30;;
59788;SDS011;47353;51.614;5.530;2024-02-23T11:58:01;3.17;;;1.10;;
59788;SDS011;47353;51.614;5.530;2024-02-23T12:00:26;3.33;;;1.23;;
59788;SDS011;47353;51.614;5.530;2024-02-23T12:02:52;5.57;;;1.50;;
59788;SDS011;47353;51.614;5.530;2024-02-23T12:05:17;4.43;;;1.50;;
59788;SDS011;47353;51.614;5.530;2024-02-23T12:07:43;6.20;;;1.50;;
59788;SDS011;47353;51.614;5.530;2024-02-23T12:10:45;3.40;;;1.30;;
59788;SDS011;47353;51.614;5.530;2024-02-23T12:15:59;3.38;;;1.60;;
59788;SDS011;47353;51.614;5.530;2024-02-23T12:18:28;4.30;;;1.40;;
59788;SDS011;47353;51.614;5.530;2024-02-23T12:21:06;3.13;;;1.30;;
59788;SDS011;47353;51.614;5.530;2024-02-23T12:27:08;5.57;;;1.60;;
59788;SDS011;47353;51.614;5.530;2024-02-23T12:29:33;5.47;;;1.70;;
59788;SDS011;47353;51.614;5.530;2024-02-23T12:32:33;5.70;;;1.77;;
59788;SDS011;47353;51.614;5.530;2024-02-23T12:35:13;4.88;;;1.90;;
59788;SDS011;47353;51.614;5.530;2024-02-23T12:37:40;5.55;;;1.70;;
59788;SDS011;47353;51.614;5.530;2024-02-23T12:40:09;5.43;;;1.67;;
59788;SDS011;47353;51.614;5.530;2024-02-23T12:42:38;4.28;;;1.55;;
59788;SDS011;47353;51.614;5.530;2024-02-23T12:45:03;5.43;;;1.42;;
59788;SDS011;47353;51.614;5.530;2024-02-23T12:47:30;3.45;;;1.40;;
59788;SDS011;47353;51.614;5.530;2024-02-23T12:50:29;3.38;;;1.23;;
59788;SDS011;47353;51.614;5.530;2024-02-23T12:52:59;5.13;;;1.50;;
59788;SDS011;47353;51.614;5.530;2024-02-23T12:55:29;6.40;;;1.40;;
59788;SDS011;47353;51.614;5.530;2024-02-23T12:57:58;6.68;;;1.42;;
59788;SDS011;47353;51.614;5.530;2024-02-23T13:00:23;4.80;;;1.60;;
59788;SDS011;47353;51.614;5.530;2024-02-23T13:02:48;6.47;;;1.50;;
59788;SDS011;47353;51.614;5.530;2024-02-23T13:05:14;4.65;;;1.27;;
59788;SDS011;47353;51.614;5.530;2024-02-23T13:07:40;4.57;;;1.55;;
59788;SDS011;47353;51.614;5.530;2024-02-23T13:10:07;3.78;;;1.50;;
59788;SDS011;47353;51.614;5.530;2024-02-23T13:12:33;3.80;;;1.23;;
59788;SDS011;47353;51.614;5.530;2024-02-23T13:14:58;5.38;;;1.42;;
59788;SDS011;47353;51.614;5.530;2024-02-23T13:17:24;6.18;;;1.70;;
59788;SDS011;47353;51.614;5.530;2024-02-23T13:19:50;4.28;;;1.30;;
59788;SDS011;47353;51.614;5.530;2024-02-23T13:22:16;6.70;;;1.50;;
59788;SDS011;47353;51.614;5.530;2024-02-23T13:24:41;6.22;;;1.20;;
59788;SDS011;47353;51.614;5.530;2024-02-23T13:27:07;3.80;;;1.10;;
59788;SDS011;47353;51.614;5.530;2024-02-23T13:29:32;5.82;;;1.50;;
59788;SDS011;47353;51.614;5.530;2024-02-23T13:31:57;4.63;;;1.40;;
59788;SDS011;47353;51.614;5.530;2024-02-23T13:34:23;8.15;;;1.40;;
59788;SDS011;47353;51.614;5.530;2024-02-23T13:36:48;4.82;;;1.20;;
59788;SDS011;47353;51.614;5.530;2024-02-23T13:39:15;5.13;;;1.30;;
59788;SDS011;47353;51.614;5.530;2024-02-23T13:41:40;3.08;;;1.50;;
59788;SDS011;47353;51.614;5.530;2024-02-23T13:44:06;5.30;;;1.30;;
59788;SDS011;47353;51.614;5.530;2024-02-23T13:46:35;4.32;;;1.55;;
59788;SDS011;47353;51.614;5.530;2024-02-23T13:49:04;2.20;;;1.20;;
59788;SDS011;47353;51.614;5.530;2024-02-23T13:51:33;5.10;;;1.40;;
59788;SDS011;47353;51.614;5.530;2024-02-23T13:54:02;2.95;;;1.23;;
59788;SDS011;47353;51.614;5.530;2024-02-23T13:56:28;6.85;;;1.70;;
59788;SDS011;47353;51.614;5.530;2024-02-23T13:58:53;3.30;;;1.20;;
59788;SDS011;47353;51.614;5.530;2024-02-23T14:01:19;3.40;;;1.30;;
59788;SDS011;47353;51.614;5.530;2024-02-23T14:03:45;6.07;;;1.30;;
59788;SDS011;47353;51.614;5.530;2024-02-23T14:06:10;2.88;;;1.30;;
59788;SDS011;47353;51.614;5.530;2024-02-23T14:08:36;4.30;;;1.63;;
59788;SDS011;47353;51.614;5.530;2024-02-23T14:11:02;2.72;;;1.52;;
59788;SDS011;47353;51.614;5.530;2024-02-23T14:13:30;3.90;;;1.40;;
59788;SDS011;47353;51.614;5.530;2024-02-23T14:15:58;5.45;;;1.33;;
59788;SDS011;47353;51.614;5.530;2024-02-23T14:18:23;4.13;;;1.40;;
59788;SDS011;47353;51.614;5.530;2024-02-23T14:20:49;2.92;;;1.30;;
59788;SDS011;47353;51.614;5.530;2024-02-23T14:23:14;3.20;;;1.40;;
59788;SDS011;47353;51.614;5.530;2024-02-23T14:25:40;4.00;;;1.45;;
59788;SDS011;47353;51.614;5.530;2024-02-23T14:28:05;5.03;;;1.27;;
59788;SDS011;47353;51.614;5.530;2024-02-23T14:30:31;4.45;;;1.60;;
59788;SDS011;47353;51.614;5.530;2024-02-23T14:32:56;3.15;;;1.13;;
59788;SDS011;47353;51.614;5.530;2024-02-23T14:35:21;4.60;;;1.23;;
59788;SDS011;47353;51.614;5.530;2024-02-23T14:37:47;2.58;;;1.33;;
59788;SDS011;47353;51.614;5.530;2024-02-23T14:40:12;5.15;;;1.40;;
59788;SDS011;47353;51.614;5.530;2024-02-23T14:42:39;2.53;;;1.10;;
59788;SDS011;47353;51.614;5.530;2024-02-23T14:45:06;3.22;;;1.52;;
59788;SDS011;47353;51.614;5.530;2024-02-23T14:47:32;3.60;;;1.38;;
59788;SDS011;47353;51.614;5.530;2024-02-23T14:49:59;3.90;;;1.30;;
59788;SDS011;47353;51.614;5.530;2024-02-23T14:52:24;3.38;;;1.20;;